sensor_id;sensor_type;location;lat;lon;timestamp;temperature;humidity
50067;DHT22;35952;52.524;13.340;2023-01-28T00:00:53;0.60;99.90
50067;DHT22;35952;52.524;13.340;2023-01-28T00:03:19;0.60;99.90
50067;DHT22;35952;52.524;13.340;2023-01-28T00:05:44;0.60;99.90
50067;DHT22;35952;52.524;13.340;2023-01-28T00:08:10;0.50;99.90
50067;DHT22;35952;52.524;13.340;2023-01-28T00:10:37;0.30;99.90
50067;DHT22;35952;52.524;13.340;2023-01-28T00:13:05;0.20;99.90
50067;DHT22;35952;52.524;13.340;2023-01-28T00:15:30;0.30;99.90
50067;DHT22;35952;52.524;13.340;2023-01-28T00:17:56;0.40;99.90
50067;DHT22;35952;52.524;13.340;2023-01-28T00:20:21;0.30;99.90
50067;DHT22;35952;52.524;13.340;2023-01-28T00:22:47;0.10;99.90
50067;DHT22;35952;52.524;13.340;2023-01-28T00:25:13;0.00;99.90
50067;DHT22;35952;52.524;13.340;2023-01-28T00:27:39;0.10;99.90
50067;DHT22;35952;52.524;13.340;2023-01-28T00:30:05;0.10;99.90
50067;DHT22;35952;52.524;13.340;2023-01-28T00:32:31;0.20;99.90
50067;DHT22;35952;52.524;13.340;2023-01-28T00:34:57;0.20;99.90
50067;DHT22;35952;52.524;13.340;2023-01-28T00:37:22;0.20;99.90
50067;DHT22;35952;52.524;13.340;2023-01-28T00:39:48;0.10;99.90
50067;DHT22;35952;52.524;13.340;2023-01-28T00:42:14;0.20;99.90
50067;DHT22;35952;52.524;13.340;2023-01-28T00:44:40;0.10;99.90
50067;DHT22;35952;52.524;13.340;2023-01-28T00:47:05;0.10;99.90
50067;DHT22;35952;52.524;13.340;2023-01-28T00:49:31;0.10;99.90
50067;DHT22;35952;52.524;13.340;2023-01-28T00:51:56;0.10;99.90
50067;DHT22;35952;52.524;13.340;2023-01-28T00:54:22;0.00;99.90
50067;DHT22;35952;52.524;13.340;2023-01-28T00:56:47;0.00;99.90
50067;DHT22;35952;52.524;13.340;2023-01-28T00:59:13;0.00;99.90
50067;DHT22;35952;52.524;13.340;2023-01-28T01:01:38;-0.20;99.90
50067;DHT22;35952;52.524;13.340;2023-01-28T01:04:04;-0.20;99.90
50067;DHT22;35952;52.524;13.340;2023-01-28T01:06:35;-0.30;99.90
50067;DHT22;35952;52.524;13.340;2023-01-28T01:09:02;-0.40;99.90
50067;DHT22;35952;52.524;13.340;2023-01-28T01:11:28;-0.30;99.90
50067;DHT22;35952;52.524;13.340;2023-01-28T01:13:56;-0.40;99.90
50067;DHT22;35952;52.524;13.340;2023-01-28T01:16:25;-0.30;99.90
50067;DHT22;35952;52.524;13.340;2023-01-28T01:18:51;-0.30;99.90
50067;DHT22;35952;52.524;13.340;2023-01-28T01:21:19;-0.30;99.90
50067;DHT22;35952;52.524;13.340;2023-01-28T01:23:46;0.00;99.90
50067;DHT22;35952;52.524;13.340;2023-01-28T01:26:12;0.20;99.90
50067;DHT22;35952;52.524;13.340;2023-01-28T01:28:38;0.20;99.90
50067;DHT22;35952;52.524;13.340;2023-01-28T01:31:06;0.10;99.90
50067;DHT22;35952;52.524;13.340;2023-01-28T01:33:33;0.10;99.90
50067;DHT22;35952;52.524;13.340;2023-01-28T01:35:58;0.10;99.90
50067;DHT22;35952;52.524;13.340;2023-01-28T01:38:25;0.40;99.90
50067;DHT22;35952;52.524;13.340;2023-01-28T01:40:51;0.50;99.90
50067;DHT22;35952;52.524;13.340;2023-01-28T01:43:18;0.70;99.90
50067;DHT22;35952;52.524;13.340;2023-01-28T01:46:05;0.80;99.90
50067;DHT22;35952;52.524;13.340;2023-01-28T01:48:32;0.70;99.90
50067;DHT22;35952;52.524;13.340;2023-01-28T01:51:22;0.90;99.90
50067;DHT22;35952;52.524;13.340;2023-01-28T01:53:51;0.90;99.90
50067;DHT22;35952;52.524;13.340;2023-01-28T01:56:21;0.90;99.90
50067;DHT22;35952;52.524;13.340;2023-01-28T01:58:49;0.90;99.90
50067;DHT22;35952;52.524;13.340;2023-01-28T02:01:20;1.00;99.90
50067;DHT22;35952;52.524;13.340;2023-01-28T02:03:55;1.10;99.90
50067;DHT22;35952;52.524;13.340;2023-01-28T02:06:23;1.00;99.90
50067;DHT22;35952;52.524;13.340;2023-01-28T02:08:52;1.20;99.90
50067;DHT22;35952;52.524;13.340;2023-01-28T02:11:18;1.10;99.90
50067;DHT22;35952;52.524;13.340;2023-01-28T02:13:47;0.90;99.90
50067;DHT22;35952;52.524;13.340;2023-01-28T02:16:14;1.00;99.90
50067;DHT22;35952;52.524;13.340;2023-01-28T02:18:39;1.10;99.90
50067;DHT22;35952;52.524;13.340;2023-01-28T02:26:26;1.00;99.90
50067;DHT22;35952;52.524;13.340;2023-01-28T02:29:07;1.10;99.90
50067;DHT22;35952;52.524;13.340;2023-01-28T02:31:52;1.00;99.90
50067;DHT22;35952;52.524;13.340;2023-01-28T02:34:39;1.10;99.90
50067;DHT22;35952;52.524;13.340;2023-01-28T02:37:24;1.20;99.90
50067;DHT22;35952;52.524;13.340;2023-01-28T02:39:53;1.20;99.90
50067;DHT22;35952;52.524;13.340;2023-01-28T02:42:27;1.30;99.90
50067;DHT22;35952;52.524;13.340;2023-01-28T02:44:53;1.40;99.90
50067;DHT22;35952;52.524;13.340;2023-01-28T02:47:19;1.40;99.90
50067;DHT22;35952;52.524;13.340;2023-01-28T02:50:11;1.30;99.90
50067;DHT22;35952;52.524;13.340;2023-01-28T02:53:00;1.40;99.90
50067;DHT22;35952;52.524;13.340;2023-01-28T02:58:26;1.30;99.90
50067;DHT22;35952;52.524;13.340;2023-01-28T03:00:58;1.40;99.90
50067;DHT22;35952;52.524;13.340;2023-01-28T03:06:18;1.30;99.90
50067;DHT22;35952;52.524;13.340;2023-01-28T03:08:59;1.30;99.90
50067;DHT22;35952;52.524;13.340;2023-01-28T03:12:10;1.30;99.90
50067;DHT22;35952;52.524;13.340;2023-01-28T03:15:02;1.30;99.90
50067;DHT22;35952;52.524;13.340;2023-01-28T03:17:57;1.30;99.90
50067;DHT22;35952;52.524;13.340;2023-01-28T03:24:08;1.20;99.90
50067;DHT22;35952;52.524;13.340;2023-01-28T03:27:04;1.10;99.90
50067;DHT22;35952;52.524;13.340;2023-01-28T03:29:50;1.20;99.90
50067;DHT22;35952;52.524;13.340;2023-01-28T03:32:37;1.20;99.90
50067;DHT22;35952;52.524;13.340;2023-01-28T03:35:28;1.30;99.90
50067;DHT22;35952;52.524;13.340;2023-01-28T03:38:13;1.30;99.90
50067;DHT22;35952;52.524;13.340;2023-01-28T03:40:57;1.30;99.90
50067;DHT22;35952;52.524;13.340;2023-01-28T03:43:24;1.30;99.90
50067;DHT22;35952;52.524;13.340;2023-01-28T03:45:49;1.40;99.90
50067;DHT22;35952;52.524;13.340;2023-01-28T03:48:20;1.40;99.90
50067;DHT22;35952;52.524;13.340;2023-01-28T03:50:46;1.50;99.90
50067;DHT22;35952;52.524;13.340;2023-01-28T03:53:13;1.40;99.90
50067;DHT22;35952;52.524;13.340;2023-01-28T03:55:46;1.50;99.90
50067;DHT22;35952;52.524;13.340;2023-01-28T03:58:13;1.30;99.90
50067;DHT22;35952;52.524;13.340;2023-01-28T04:00:39;1.40;99.90
50067;DHT22;35952;52.524;13.340;2023-01-28T04:03:15;1.40;99.90
50067;DHT22;35952;52.524;13.340;2023-01-28T04:05:47;1.50;99.90
50067;DHT22;35952;52.524;13.340;2023-01-28T04:08:22;1.50;99.90
50067;DHT22;35952;52.524;13.340;2023-01-28T04:10:47;1.40;99.90
50067;DHT22;35952;52.524;13.340;2023-01-28T04:13:13;1.40;99.90
50067;DHT22;35952;52.524;13.340;2023-01-28T04:15:38;1.40;99.90
50067;DHT22;35952;52.524;13.340;2023-01-28T04:18:04;1.40;99.90
50067;DHT22;35952;52.524;13.340;2023-01-28T04:20:30;1.60;99.90
50067;DHT22;35952;52.524;13.340;2023-01-28T04:22:55;1.60;99.90
50067;DHT22;35952;52.524;13.340;2023-01-28T04:25:21;1.60;99.90
50067;DHT22;35952;52.524;13.340;2023-01-28T04:27:47;1.70;99.90
50067;DHT22;35952;52.524;13.340;2023-01-28T04:30:13;1.60;99.90
50067;DHT22;35952;52.524;13.340;2023-01-28T04:32:38;1.70;99.90
50067;DHT22;35952;52.524;13.340;2023-01-28T04:35:04;1.70;99.90
50067;DHT22;35952;52.524;13.340;2023-01-28T04:37:29;1.70;99.90
50067;DHT22;35952;52.524;13.340;2023-01-28T04:39:55;1.70;99.90
50067;DHT22;35952;52.524;13.340;2023-01-28T04:42:20;1.70;99.90
50067;DHT22;35952;52.524;13.340;2023-01-28T04:44:46;1.70;99.90
50067;DHT22;35952;52.524;13.340;2023-01-28T04:47:11;1.80;99.90
50067;DHT22;35952;52.524;13.340;2023-01-28T04:49:37;1.60;99.90
50067;DHT22;35952;52.524;13.340;2023-01-28T04:52:02;1.60;99.90
50067;DHT22;35952;52.524;13.340;2023-01-28T04:54:28;1.50;99.90
50067;DHT22;35952;52.524;13.340;2023-01-28T04:56:53;1.50;99.90
50067;DHT22;35952;52.524;13.340;2023-01-28T04:59:20;1.40;99.90
50067;DHT22;35952;52.524;13.340;2023-01-28T05:01:46;1.40;99.90
50067;DHT22;35952;52.524;13.340;2023-01-28T05:04:11;1.50;99.90
50067;DHT22;35952;52.524;13.340;2023-01-28T05:06:36;1.50;99.90
50067;DHT22;35952;52.524;13.340;2023-01-28T05:09:02;1.40;99.90
50067;DHT22;35952;52.524;13.340;2023-01-28T05:11:28;1.50;99.90
50067;DHT22;35952;52.524;13.340;2023-01-28T05:13:54;1.70;99.90
50067;DHT22;35952;52.524;13.340;2023-01-28T05:16:19;1.70;99.90
50067;DHT22;35952;52.524;13.340;2023-01-28T05:18:45;1.70;99.90
50067;DHT22;35952;52.524;13.340;2023-01-28T05:21:12;1.80;99.90
50067;DHT22;35952;52.524;13.340;2023-01-28T05:23:38;1.80;99.90
50067;DHT22;35952;52.524;13.340;2023-01-28T05:26:03;1.90;99.90
50067;DHT22;35952;52.524;13.340;2023-01-28T05:28:29;2.00;99.90
50067;DHT22;35952;52.524;13.340;2023-01-28T05:30:55;2.00;99.90
50067;DHT22;35952;52.524;13.340;2023-01-28T05:33:20;2.00;99.90
50067;DHT22;35952;52.524;13.340;2023-01-28T05:35:46;1.90;99.90
50067;DHT22;35952;52.524;13.340;2023-01-28T05:38:13;1.90;99.90
50067;DHT22;35952;52.524;13.340;2023-01-28T05:40:39;1.90;99.90
50067;DHT22;35952;52.524;13.340;2023-01-28T05:43:04;1.80;99.90
50067;DHT22;35952;52.524;13.340;2023-01-28T05:45:30;1.90;99.90
50067;DHT22;35952;52.524;13.340;2023-01-28T05:47:55;1.90;99.90
50067;DHT22;35952;52.524;13.340;2023-01-28T05:50:21;1.90;99.90
50067;DHT22;35952;52.524;13.340;2023-01-28T05:52:46;1.90;99.90
50067;DHT22;35952;52.524;13.340;2023-01-28T05:55:12;2.00;99.90
50067;DHT22;35952;52.524;13.340;2023-01-28T05:57:37;1.90;99.90
50067;DHT22;35952;52.524;13.340;2023-01-28T06:00:04;1.90;99.90
50067;DHT22;35952;52.524;13.340;2023-01-28T06:02:30;1.80;99.90
50067;DHT22;35952;52.524;13.340;2023-01-28T06:04:55;2.00;99.90
50067;DHT22;35952;52.524;13.340;2023-01-28T06:07:21;2.00;99.90
50067;DHT22;35952;52.524;13.340;2023-01-28T06:09:48;2.00;99.90
50067;DHT22;35952;52.524;13.340;2023-01-28T06:12:13;2.10;99.90
50067;DHT22;35952;52.524;13.340;2023-01-28T06:14:39;2.10;99.90
50067;DHT22;35952;52.524;13.340;2023-01-28T06:17:04;2.00;99.90
50067;DHT22;35952;52.524;13.340;2023-01-28T06:19:30;2.00;99.90
50067;DHT22;35952;52.524;13.340;2023-01-28T06:21:55;2.10;99.90
50067;DHT22;35952;52.524;13.340;2023-01-28T06:24:21;2.00;99.90
50067;DHT22;35952;52.524;13.340;2023-01-28T06:26:46;1.90;99.90
50067;DHT22;35952;52.524;13.340;2023-01-28T06:29:12;1.90;99.90
50067;DHT22;35952;52.524;13.340;2023-01-28T06:31:37;2.00;99.90
50067;DHT22;35952;52.524;13.340;2023-01-28T06:34:03;2.00;99.90
50067;DHT22;35952;52.524;13.340;2023-01-28T06:36:29;2.00;99.90
50067;DHT22;35952;52.524;13.340;2023-01-28T06:38:54;1.80;99.90
50067;DHT22;35952;52.524;13.340;2023-01-28T06:41:20;1.90;99.90
50067;DHT22;35952;52.524;13.340;2023-01-28T06:43:45;2.00;99.90
50067;DHT22;35952;52.524;13.340;2023-01-28T06:46:11;2.10;99.90
50067;DHT22;35952;52.524;13.340;2023-01-28T06:48:36;2.10;99.90
50067;DHT22;35952;52.524;13.340;2023-01-28T06:51:02;2.00;99.90
50067;DHT22;35952;52.524;13.340;2023-01-28T06:53:27;2.00;99.90
50067;DHT22;35952;52.524;13.340;2023-01-28T06:55:53;1.90;99.90
50067;DHT22;35952;52.524;13.340;2023-01-28T06:58:18;2.00;99.90
50067;DHT22;35952;52.524;13.340;2023-01-28T07:00:44;2.00;99.90
50067;DHT22;35952;52.524;13.340;2023-01-28T07:03:10;2.00;99.90
50067;DHT22;35952;52.524;13.340;2023-01-28T07:05:35;1.90;99.90
50067;DHT22;35952;52.524;13.340;2023-01-28T07:08:01;1.80;99.90
50067;DHT22;35952;52.524;13.340;2023-01-28T07:10:27;1.90;99.90
50067;DHT22;35952;52.524;13.340;2023-01-28T07:12:53;2.20;99.90
50067;DHT22;35952;52.524;13.340;2023-01-28T07:15:18;2.10;99.90
50067;DHT22;35952;52.524;13.340;2023-01-28T07:17:44;2.10;99.90
50067;DHT22;35952;52.524;13.340;2023-01-28T07:20:11;2.20;99.90
50067;DHT22;35952;52.524;13.340;2023-01-28T07:22:39;2.30;99.90
50067;DHT22;35952;52.524;13.340;2023-01-28T07:25:06;2.10;99.90
50067;DHT22;35952;52.524;13.340;2023-01-28T07:27:32;2.20;99.90
50067;DHT22;35952;52.524;13.340;2023-01-28T07:29:57;2.20;99.90
50067;DHT22;35952;52.524;13.340;2023-01-28T07:32:23;2.10;99.90
50067;DHT22;35952;52.524;13.340;2023-01-28T07:34:51;2.00;99.90
50067;DHT22;35952;52.524;13.340;2023-01-28T07:37:16;2.00;99.90
50067;DHT22;35952;52.524;13.340;2023-01-28T07:39:42;2.10;99.90
50067;DHT22;35952;52.524;13.340;2023-01-28T07:42:07;2.10;99.90
50067;DHT22;35952;52.524;13.340;2023-01-28T07:44:34;2.10;99.90
50067;DHT22;35952;52.524;13.340;2023-01-28T07:47:01;2.20;99.90
50067;DHT22;35952;52.524;13.340;2023-01-28T07:49:27;2.30;99.90
50067;DHT22;35952;52.524;13.340;2023-01-28T07:51:52;2.40;99.90
50067;DHT22;35952;52.524;13.340;2023-01-28T07:54:18;2.20;99.90
50067;DHT22;35952;52.524;13.340;2023-01-28T07:56:43;2.10;99.90
50067;DHT22;35952;52.524;13.340;2023-01-28T07:59:09;2.10;99.90
50067;DHT22;35952;52.524;13.340;2023-01-28T08:01:34;2.20;99.90
50067;DHT22;35952;52.524;13.340;2023-01-28T08:04:00;2.30;99.90
50067;DHT22;35952;52.524;13.340;2023-01-28T08:06:27;2.20;99.90
50067;DHT22;35952;52.524;13.340;2023-01-28T08:08:53;2.20;99.90
50067;DHT22;35952;52.524;13.340;2023-01-28T08:11:18;2.20;99.90
50067;DHT22;35952;52.524;13.340;2023-01-28T08:13:44;2.40;99.90
50067;DHT22;35952;52.524;13.340;2023-01-28T08:16:09;2.60;99.90
50067;DHT22;35952;52.524;13.340;2023-01-28T08:21:22;2.70;99.90
50067;DHT22;35952;52.524;13.340;2023-01-28T08:24:07;2.80;99.90
50067;DHT22;35952;52.524;13.340;2023-01-28T08:26:49;2.80;99.90
50067;DHT22;35952;52.524;13.340;2023-01-28T08:29:49;2.70;99.90
50067;DHT22;35952;52.524;13.340;2023-01-28T08:36:51;2.50;99.90
50067;DHT22;35952;52.524;13.340;2023-01-28T08:39:46;2.50;99.90
50067;DHT22;35952;52.524;13.340;2023-01-28T08:42:43;2.40;99.90
50067;DHT22;35952;52.524;13.340;2023-01-28T08:52:33;2.80;99.90
50067;DHT22;35952;52.524;13.340;2023-01-28T08:59:31;2.90;99.90
50067;DHT22;35952;52.524;13.340;2023-01-28T09:02:21;2.90;99.90
50067;DHT22;35952;52.524;13.340;2023-01-28T09:08:39;2.80;99.90
50067;DHT22;35952;52.524;13.340;2023-01-28T09:11:10;2.90;99.90
50067;DHT22;35952;52.524;13.340;2023-01-28T09:13:58;2.90;99.90
50067;DHT22;35952;52.524;13.340;2023-01-28T09:17:18;2.80;99.90
50067;DHT22;35952;52.524;13.340;2023-01-28T09:20:29;2.90;99.90
50067;DHT22;35952;52.524;13.340;2023-01-28T09:26:56;3.10;99.90
50067;DHT22;35952;52.524;13.340;2023-01-28T09:29:47;3.00;99.90
50067;DHT22;35952;52.524;13.340;2023-01-28T09:36:42;2.90;99.90
50067;DHT22;35952;52.524;13.340;2023-01-28T09:46:22;3.00;99.90
50067;DHT22;35952;52.524;13.340;2023-01-28T10:06:15;3.40;99.90
50067;DHT22;35952;52.524;13.340;2023-01-28T10:29:41;3.30;99.90
50067;DHT22;35952;52.524;13.340;2023-01-28T10:33:13;3.40;99.90
50067;DHT22;35952;52.524;13.340;2023-01-28T10:39:33;3.70;99.90
50067;DHT22;35952;52.524;13.340;2023-01-28T10:52:14;3.50;99.90
50067;DHT22;35952;52.524;13.340;2023-01-28T10:55:19;3.50;99.90
50067;DHT22;35952;52.524;13.340;2023-01-28T11:02:27;3.50;99.90
50067;DHT22;35952;52.524;13.340;2023-01-28T11:05:17;3.60;99.90
50067;DHT22;35952;52.524;13.340;2023-01-28T11:08:46;3.70;99.90
50067;DHT22;35952;52.524;13.340;2023-01-28T11:11:25;3.70;99.90
50067;DHT22;35952;52.524;13.340;2023-01-28T11:17:03;3.60;99.90
50067;DHT22;35952;52.524;13.340;2023-01-28T11:23:29;3.40;99.90
50067;DHT22;35952;52.524;13.340;2023-01-28T11:29:41;3.40;99.90
50067;DHT22;35952;52.524;13.340;2023-01-28T11:39:28;3.70;99.90
50067;DHT22;35952;52.524;13.340;2023-01-28T11:57:25;3.80;99.90
50067;DHT22;35952;52.524;13.340;2023-01-28T12:07:51;3.60;99.90
50067;DHT22;35952;52.524;13.340;2023-01-28T12:20:27;3.00;99.90
50067;DHT22;35952;52.524;13.340;2023-01-28T12:23:32;3.00;99.90
50067;DHT22;35952;52.524;13.340;2023-01-28T12:29:49;3.50;99.90
50067;DHT22;35952;52.524;13.340;2023-01-28T12:52:23;3.50;99.90
50067;DHT22;35952;52.524;13.340;2023-01-28T12:58:23;3.30;99.90
50067;DHT22;35952;52.524;13.340;2023-01-28T13:01:11;3.20;99.90
50067;DHT22;35952;52.524;13.340;2023-01-28T13:04:07;3.30;99.90
50067;DHT22;35952;52.524;13.340;2023-01-28T13:06:46;3.30;99.90
50067;DHT22;35952;52.524;13.340;2023-01-28T13:09:47;3.40;99.90
50067;DHT22;35952;52.524;13.340;2023-01-28T13:13:14;3.40;99.90
50067;DHT22;35952;52.524;13.340;2023-01-28T13:16:07;3.50;99.90
50067;DHT22;35952;52.524;13.340;2023-01-28T13:22:36;3.50;99.90
50067;DHT22;35952;52.524;13.340;2023-01-28T13:25:28;3.50;99.90
50067;DHT22;35952;52.524;13.340;2023-01-28T13:28:05;3.40;99.90
50067;DHT22;35952;52.524;13.340;2023-01-28T13:30:46;3.40;99.90
50067;DHT22;35952;52.524;13.340;2023-01-28T13:33:40;3.30;99.90
50067;DHT22;35952;52.524;13.340;2023-01-28T13:36:30;3.40;99.90
50067;DHT22;35952;52.524;13.340;2023-01-28T13:42:55;3.30;99.90
50067;DHT22;35952;52.524;13.340;2023-01-28T13:45:36;3.30;99.90
50067;DHT22;35952;52.524;13.340;2023-01-28T13:48:40;3.20;99.90
50067;DHT22;35952;52.524;13.340;2023-01-28T14:04:34;3.20;99.90
50067;DHT22;35952;52.524;13.340;2023-01-28T14:23:27;3.10;99.90
50067;DHT22;35952;52.524;13.340;2023-01-28T14:36:08;3.20;99.90
50067;DHT22;35952;52.524;13.340;2023-01-28T14:42:10;3.20;99.90
50067;DHT22;35952;52.524;13.340;2023-01-28T14:44:45;3.00;99.90
50067;DHT22;35952;52.524;13.340;2023-01-28T14:50:59;3.10;99.90
50067;DHT22;35952;52.524;13.340;2023-01-28T14:57:16;3.20;99.90
50067;DHT22;35952;52.524;13.340;2023-01-28T14:59:50;3.20;99.90
50067;DHT22;35952;52.524;13.340;2023-01-28T15:02:30;3.20;99.90
50067;DHT22;35952;52.524;13.340;2023-01-28T15:05:28;3.10;99.90
50067;DHT22;35952;52.524;13.340;2023-01-28T15:07:59;3.00;99.90
50067;DHT22;35952;52.524;13.340;2023-01-28T15:10:35;3.00;99.90
50067;DHT22;35952;52.524;13.340;2023-01-28T15:13:17;3.00;99.90
50067;DHT22;35952;52.524;13.340;2023-01-28T15:15:48;2.90;99.90
50067;DHT22;35952;52.524;13.340;2023-01-28T15:18:39;2.90;99.90
50067;DHT22;35952;52.524;13.340;2023-01-28T15:21:23;2.90;99.90
50067;DHT22;35952;52.524;13.340;2023-01-28T15:23:58;2.90;99.90
50067;DHT22;35952;52.524;13.340;2023-01-28T15:26:32;2.90;99.90
50067;DHT22;35952;52.524;13.340;2023-01-28T15:29:02;2.80;99.90
50067;DHT22;35952;52.524;13.340;2023-01-28T15:31:34;2.80;99.90
50067;DHT22;35952;52.524;13.340;2023-01-28T15:34:11;2.70;99.90
50067;DHT22;35952;52.524;13.340;2023-01-28T15:37:03;2.70;99.90
50067;DHT22;35952;52.524;13.340;2023-01-28T15:39:32;2.70;99.90
50067;DHT22;35952;52.524;13.340;2023-01-28T15:42:25;2.80;99.90
50067;DHT22;35952;52.524;13.340;2023-01-28T15:44:57;2.80;99.90
50067;DHT22;35952;52.524;13.340;2023-01-28T15:47:30;2.50;99.90
50067;DHT22;35952;52.524;13.340;2023-01-28T15:50:03;2.50;99.90
50067;DHT22;35952;52.524;13.340;2023-01-28T15:52:37;2.50;99.90
50067;DHT22;35952;52.524;13.340;2023-01-28T15:55:05;2.60;99.90
50067;DHT22;35952;52.524;13.340;2023-01-28T15:57:36;2.80;99.90
50067;DHT22;35952;52.524;13.340;2023-01-28T16:00:18;2.90;99.90
50067;DHT22;35952;52.524;13.340;2023-01-28T16:02:52;2.80;99.90
50067;DHT22;35952;52.524;13.340;2023-01-28T16:05:30;2.80;99.90
50067;DHT22;35952;52.524;13.340;2023-01-28T16:07:56;2.70;99.90
50067;DHT22;35952;52.524;13.340;2023-01-28T16:10:28;2.70;99.90
50067;DHT22;35952;52.524;13.340;2023-01-28T16:13:04;2.70;99.90
50067;DHT22;35952;52.524;13.340;2023-01-28T16:15:31;2.70;99.90
50067;DHT22;35952;52.524;13.340;2023-01-28T16:17:58;2.70;99.90
50067;DHT22;35952;52.524;13.340;2023-01-28T16:20:28;2.70;99.90
50067;DHT22;35952;52.524;13.340;2023-01-28T16:22:59;2.70;99.90
50067;DHT22;35952;52.524;13.340;2023-01-28T16:25:34;2.60;99.90
50067;DHT22;35952;52.524;13.340;2023-01-28T16:28:18;2.60;99.90
50067;DHT22;35952;52.524;13.340;2023-01-28T16:30:44;2.60;99.90
50067;DHT22;35952;52.524;13.340;2023-01-28T16:33:17;2.50;99.90
50067;DHT22;35952;52.524;13.340;2023-01-28T16:35:43;2.60;99.90
50067;DHT22;35952;52.524;13.340;2023-01-28T16:38:09;2.50;99.90
50067;DHT22;35952;52.524;13.340;2023-01-28T16:40:42;2.50;99.90
50067;DHT22;35952;52.524;13.340;2023-01-28T16:43:12;2.50;99.90
50067;DHT22;35952;52.524;13.340;2023-01-28T16:45:40;2.50;99.90
50067;DHT22;35952;52.524;13.340;2023-01-28T16:48:06;2.50;99.90
50067;DHT22;35952;52.524;13.340;2023-01-28T16:50:32;2.50;99.90
50067;DHT22;35952;52.524;13.340;2023-01-28T16:52:58;2.50;99.90
50067;DHT22;35952;52.524;13.340;2023-01-28T16:55:30;2.50;99.90
50067;DHT22;35952;52.524;13.340;2023-01-28T16:58:25;2.50;99.90
50067;DHT22;35952;52.524;13.340;2023-01-28T17:00:59;2.50;99.90
50067;DHT22;35952;52.524;13.340;2023-01-28T17:07:07;2.50;99.90
50067;DHT22;35952;52.524;13.340;2023-01-28T17:09:41;2.50;99.90
50067;DHT22;35952;52.524;13.340;2023-01-28T17:13:00;2.50;99.90
50067;DHT22;35952;52.524;13.340;2023-01-28T17:24:58;2.30;99.90
50067;DHT22;35952;52.524;13.340;2023-01-28T17:34:19;2.20;99.90
50067;DHT22;35952;52.524;13.340;2023-01-28T17:37:30;2.30;99.90
50067;DHT22;35952;52.524;13.340;2023-01-28T17:40:20;2.20;99.90
50067;DHT22;35952;52.524;13.340;2023-01-28T17:42:48;2.20;99.90
50067;DHT22;35952;52.524;13.340;2023-01-28T17:45:33;2.20;99.90
50067;DHT22;35952;52.524;13.340;2023-01-28T17:48:34;2.30;99.90
50067;DHT22;35952;52.524;13.340;2023-01-28T17:51:11;2.30;99.90
50067;DHT22;35952;52.524;13.340;2023-01-28T17:53:45;2.20;99.90
50067;DHT22;35952;52.524;13.340;2023-01-28T17:56:37;2.10;99.90
50067;DHT22;35952;52.524;13.340;2023-01-28T17:59:18;2.10;99.90
50067;DHT22;35952;52.524;13.340;2023-01-28T18:01:55;2.00;99.90
50067;DHT22;35952;52.524;13.340;2023-01-28T18:04:27;1.90;99.90
50067;DHT22;35952;52.524;13.340;2023-01-28T18:07:07;1.90;99.90
50067;DHT22;35952;52.524;13.340;2023-01-28T18:13:20;1.90;99.90
50067;DHT22;35952;52.524;13.340;2023-01-28T18:16:16;1.90;99.90
50067;DHT22;35952;52.524;13.340;2023-01-28T18:19:05;1.90;99.90
50067;DHT22;35952;52.524;13.340;2023-01-28T18:24:47;1.70;99.90
50067;DHT22;35952;52.524;13.340;2023-01-28T18:28:00;1.70;99.90
50067;DHT22;35952;52.524;13.340;2023-01-28T18:34:11;1.50;99.90
50067;DHT22;35952;52.524;13.340;2023-01-28T18:36:56;1.40;99.90
50067;DHT22;35952;52.524;13.340;2023-01-28T18:39:56;1.40;99.90
50067;DHT22;35952;52.524;13.340;2023-01-28T18:43:06;1.40;99.90
50067;DHT22;35952;52.524;13.340;2023-01-28T18:45:52;1.40;99.90
50067;DHT22;35952;52.524;13.340;2023-01-28T18:48:21;1.40;99.90
50067;DHT22;35952;52.524;13.340;2023-01-28T18:50:58;1.30;99.90
50067;DHT22;35952;52.524;13.340;2023-01-28T18:53:57;1.30;99.90
50067;DHT22;35952;52.524;13.340;2023-01-28T19:00:22;1.30;99.90
50067;DHT22;35952;52.524;13.340;2023-01-28T19:09:00;1.50;99.90
50067;DHT22;35952;52.524;13.340;2023-01-28T19:11:27;1.50;99.90
50067;DHT22;35952;52.524;13.340;2023-01-28T19:13:53;1.50;99.90
50067;DHT22;35952;52.524;13.340;2023-01-28T19:16:20;1.50;99.90
50067;DHT22;35952;52.524;13.340;2023-01-28T19:18:53;1.50;99.90
50067;DHT22;35952;52.524;13.340;2023-01-28T19:21:20;1.50;99.90
50067;DHT22;35952;52.524;13.340;2023-01-28T19:23:46;1.50;99.90
50067;DHT22;35952;52.524;13.340;2023-01-28T19:26:11;1.50;99.90
50067;DHT22;35952;52.524;13.340;2023-01-28T19:28:38;1.50;99.90
50067;DHT22;35952;52.524;13.340;2023-01-28T19:31:04;1.60;99.90
50067;DHT22;35952;52.524;13.340;2023-01-28T19:33:29;1.60;99.90
50067;DHT22;35952;52.524;13.340;2023-01-28T19:35:58;1.60;99.90
50067;DHT22;35952;52.524;13.340;2023-01-28T19:38:25;1.60;99.90
50067;DHT22;35952;52.524;13.340;2023-01-28T19:40:51;1.60;99.90
50067;DHT22;35952;52.524;13.340;2023-01-28T19:43:17;1.60;99.90
50067;DHT22;35952;52.524;13.340;2023-01-28T19:46:00;1.50;99.90
50067;DHT22;35952;52.524;13.340;2023-01-28T19:48:26;1.40;99.90
50067;DHT22;35952;52.524;13.340;2023-01-28T19:50:52;1.40;99.90
50067;DHT22;35952;52.524;13.340;2023-01-28T19:53:18;1.40;99.90
50067;DHT22;35952;52.524;13.340;2023-01-28T19:55:44;1.30;99.90
50067;DHT22;35952;52.524;13.340;2023-01-28T19:58:09;1.40;99.90
50067;DHT22;35952;52.524;13.340;2023-01-28T20:00:36;1.50;99.90
50067;DHT22;35952;52.524;13.340;2023-01-28T20:03:02;1.50;99.90
50067;DHT22;35952;52.524;13.340;2023-01-28T20:05:30;1.40;99.90
50067;DHT22;35952;52.524;13.340;2023-01-28T20:07:56;1.30;99.90
50067;DHT22;35952;52.524;13.340;2023-01-28T20:10:22;1.30;99.90
50067;DHT22;35952;52.524;13.340;2023-01-28T20:12:47;1.20;99.90
50067;DHT22;35952;52.524;13.340;2023-01-28T20:15:13;1.20;99.90
50067;DHT22;35952;52.524;13.340;2023-01-28T20:17:38;1.20;99.90
50067;DHT22;35952;52.524;13.340;2023-01-28T20:20:05;1.20;99.90
50067;DHT22;35952;52.524;13.340;2023-01-28T20:22:31;1.20;99.90
50067;DHT22;35952;52.524;13.340;2023-01-28T20:24:58;1.10;99.90
50067;DHT22;35952;52.524;13.340;2023-01-28T20:27:24;1.10;99.90
50067;DHT22;35952;52.524;13.340;2023-01-28T20:29:50;0.90;99.90
50067;DHT22;35952;52.524;13.340;2023-01-28T20:32:17;1.00;99.90
50067;DHT22;35952;52.524;13.340;2023-01-28T20:34:43;0.90;99.90
50067;DHT22;35952;52.524;13.340;2023-01-28T20:37:08;1.00;99.90
50067;DHT22;35952;52.524;13.340;2023-01-28T20:39:36;0.90;99.90
50067;DHT22;35952;52.524;13.340;2023-01-28T20:42:02;0.80;99.90
50067;DHT22;35952;52.524;13.340;2023-01-28T20:44:30;0.90;99.90
50067;DHT22;35952;52.524;13.340;2023-01-28T20:46:57;0.90;99.90
50067;DHT22;35952;52.524;13.340;2023-01-28T20:49:23;0.80;99.90
50067;DHT22;35952;52.524;13.340;2023-01-28T20:51:48;0.80;99.90